createdAt,value
2022-11-19T00:02:06.455Z,0.93
2022-11-19T00:04:35.963Z,1.03
2022-11-19T00:07:04.429Z,1.20
2022-11-19T00:09:32.723Z,0.70
2022-11-19T00:12:18.506Z,1.00
2022-11-19T00:14:46.802Z,0.90
2022-11-19T00:17:14.965Z,0.90
2022-11-19T00:19:44.605Z,1.10
2022-11-19T00:22:12.923Z,0.80
2022-11-19T00:24:41.002Z,1.00
2022-11-19T00:27:09.302Z,0.97
2022-11-19T00:29:38.094Z,0.90
2022-11-19T00:32:08.935Z,0.80
2022-11-19T00:34:37.192Z,1.10
2022-11-19T00:37:07.049Z,1.00
2022-11-19T00:39:35.282Z,0.80
2022-11-19T00:42:03.529Z,1.00
2022-11-19T00:44:37.004Z,0.90
2022-11-19T00:47:06.460Z,0.70
2022-11-19T00:49:34.695Z,1.07
2022-11-19T00:52:02.862Z,0.90
2022-11-19T00:54:32.549Z,0.73
2022-11-19T00:57:00.981Z,1.20
2022-11-19T00:59:29.125Z,0.90
2022-11-19T01:01:57.461Z,1.10
2022-11-19T01:04:25.799Z,1.00
2022-11-19T01:06:54.016Z,1.00
2022-11-19T01:09:22.461Z,1.10
2022-11-19T01:11:52.061Z,1.20
2022-11-19T01:14:20.099Z,1.20
2022-11-19T01:16:48.281Z,0.90
2022-11-19T01:19:17.214Z,1.10
2022-11-19T01:21:45.664Z,0.80
2022-11-19T01:24:13.882Z,0.90
2022-11-19T01:26:45.842Z,0.93
2022-11-19T01:29:16.031Z,1.07
2022-11-19T01:31:44.413Z,0.97
2022-11-19T01:34:12.566Z,0.77
2022-11-19T01:36:40.985Z,0.67
2022-11-19T01:39:09.147Z,0.60
2022-11-19T01:41:37.288Z,0.60
2022-11-19T01:44:10.438Z,0.63
2022-11-19T01:46:42.178Z,0.60
2022-11-19T01:49:14.263Z,0.70
2022-11-19T01:51:49.456Z,0.60
2022-11-19T01:54:23.200Z,0.40
2022-11-19T01:56:51.647Z,0.60
2022-11-19T01:59:21.438Z,0.50
2022-11-19T02:01:51.401Z,0.50
2022-11-19T02:04:22.171Z,0.60
2022-11-19T02:06:50.515Z,0.47
2022-11-19T02:09:19.056Z,0.50
2022-11-19T02:12:16.237Z,0.60
2022-11-19T02:15:02.433Z,0.63
2022-11-19T02:17:48.324Z,0.60
2022-11-19T02:20:46.107Z,0.60
2022-11-19T02:23:45.999Z,0.50
2022-11-19T02:26:43.813Z,0.70
2022-11-19T02:29:21.997Z,0.50
2022-11-19T02:31:58.790Z,0.40
2022-11-19T02:34:32.375Z,0.60
2022-11-19T02:37:05.734Z,0.50
2022-11-19T02:39:42.708Z,0.53
2022-11-19T02:42:19.636Z,0.77
2022-11-19T02:45:02.779Z,0.90
2022-11-19T02:47:39.032Z,0.70
2022-11-19T02:50:12.422Z,0.50
2022-11-19T02:52:41.697Z,0.70
2022-11-19T02:55:13.393Z,0.53
2022-11-19T02:57:43.173Z,0.60
2022-11-19T03:00:30.638Z,0.40
2022-11-19T03:03:23.977Z,0.60
2022-11-19T03:05:59.164Z,0.50
2022-11-19T03:08:28.395Z,0.50
2022-11-19T03:11:07.283Z,0.57
2022-11-19T03:14:01.876Z,0.50
2022-11-19T03:16:43.523Z,0.40
2022-11-19T03:19:31.873Z,0.50
2022-11-19T03:22:07.205Z,0.50
2022-11-19T03:24:41.456Z,0.50
2022-11-19T03:27:12.816Z,0.60
2022-11-19T03:29:45.355Z,0.60
2022-11-19T03:32:19.825Z,0.50
2022-11-19T03:34:53.248Z,0.50
2022-11-19T03:37:24.933Z,0.57
2022-11-19T03:39:57.368Z,0.60
2022-11-19T03:42:27.728Z,0.50
2022-11-19T03:45:02.739Z,0.40
2022-11-19T03:47:38.275Z,0.53
2022-11-19T03:50:16.725Z,0.47
2022-11-19T03:52:45.234Z,0.57
2022-11-19T03:55:13.907Z,0.50
2022-11-19T03:57:42.344Z,0.50
2022-11-19T04:00:11.537Z,0.60
2022-11-19T04:02:39.799Z,0.50
2022-11-19T04:05:10.245Z,0.50
2022-11-19T04:07:38.633Z,0.70
2022-11-19T04:10:10.345Z,0.37
2022-11-19T04:12:38.764Z,0.57
2022-11-19T04:15:08.102Z,0.60
2022-11-19T04:17:38.972Z,0.53
2022-11-19T04:20:10.614Z,0.43
2022-11-19T04:22:38.812Z,0.60
2022-11-19T04:25:10.693Z,0.53
2022-11-19T04:27:38.933Z,0.40
2022-11-19T04:30:11.245Z,0.60
2022-11-19T04:32:39.636Z,0.70
2022-11-19T04:35:09.802Z,0.60
2022-11-19T04:37:40.549Z,0.50
2022-11-19T04:40:11.951Z,0.47
2022-11-19T04:42:40.155Z,0.40
2022-11-19T04:45:09.899Z,0.53
2022-11-19T04:47:40.991Z,0.70
2022-11-19T04:50:11.451Z,0.60
2022-11-19T04:52:41.341Z,0.50
2022-11-19T04:55:10.914Z,0.70
2022-11-19T04:57:39.158Z,0.70
2022-11-19T05:00:09.163Z,0.70
2022-11-19T05:02:40.574Z,0.57
2022-11-19T05:05:11.325Z,0.60
2022-11-19T05:07:39.489Z,0.60
2022-11-19T05:10:11.637Z,0.60
2022-11-19T05:12:40.253Z,0.80
2022-11-19T05:15:09.498Z,0.50
2022-11-19T05:17:40.700Z,0.60
2022-11-19T05:20:11.168Z,0.60
2022-11-19T05:22:39.509Z,0.60
2022-11-19T05:25:10.906Z,0.60
2022-11-19T05:27:39.254Z,0.60
2022-11-19T05:30:12.013Z,0.50
2022-11-19T05:32:40.372Z,0.60
2022-11-19T05:35:11.148Z,0.60
2022-11-19T05:37:39.468Z,0.60
2022-11-19T05:40:10.818Z,0.90
2022-11-19T05:42:38.961Z,0.70
2022-11-19T05:45:08.806Z,0.80
2022-11-19T05:47:37.161Z,0.73
2022-11-19T05:50:06.200Z,0.70
2022-11-19T05:52:36.617Z,0.70
2022-11-19T05:55:07.165Z,0.80
2022-11-19T05:57:37.317Z,0.70
2022-11-19T06:00:06.903Z,0.70
2022-11-19T06:02:35.044Z,0.80
2022-11-19T06:05:03.731Z,0.73
2022-11-19T06:07:31.969Z,0.80
2022-11-19T06:10:01.494Z,0.70
2022-11-19T06:12:30.012Z,0.70
2022-11-19T06:14:58.202Z,0.80
2022-11-19T06:17:26.285Z,0.87
2022-11-19T06:19:54.536Z,1.20
2022-11-19T06:22:22.642Z,1.03
2022-11-19T06:24:50.666Z,0.80
2022-11-19T06:27:20.358Z,0.90
2022-11-19T06:29:51.099Z,0.83
2022-11-19T06:32:23.729Z,0.80
2022-11-19T06:34:51.831Z,0.70
2022-11-19T06:37:20.109Z,0.80
2022-11-19T06:39:48.465Z,0.80
2022-11-19T06:42:34.290Z,0.70
2022-11-19T06:45:04.167Z,0.77
2022-11-19T06:47:32.512Z,0.80
2022-11-19T06:50:00.682Z,0.80
2022-11-19T06:52:29.083Z,0.80
2022-11-19T06:54:57.209Z,0.80
2022-11-19T06:57:25.551Z,0.60
2022-11-19T06:59:53.916Z,1.00
2022-11-19T07:02:23.332Z,0.97
2022-11-19T07:04:51.566Z,0.73
2022-11-19T07:07:19.952Z,0.80
2022-11-19T07:09:48.038Z,0.70
2022-11-19T07:12:16.232Z,0.80
2022-11-19T07:14:44.515Z,0.80
2022-11-19T07:17:12.659Z,0.70
2022-11-19T07:19:42.357Z,0.90
2022-11-19T07:22:11.640Z,0.70
2022-11-19T07:24:43.714Z,0.60
2022-11-19T07:27:24.503Z,0.80
2022-11-19T07:29:57.270Z,0.80
2022-11-19T07:32:25.849Z,0.63
2022-11-19T07:34:56.845Z,0.77
2022-11-19T07:37:25.389Z,0.73
2022-11-19T07:39:53.692Z,0.70
2022-11-19T07:42:39.169Z,0.80
2022-11-19T07:45:11.087Z,0.87
2022-11-19T07:47:39.235Z,0.80
2022-11-19T07:50:09.864Z,0.60
2022-11-19T07:52:40.627Z,0.90
2022-11-19T07:55:09.581Z,0.63
2022-11-19T07:57:38.563Z,0.70
2022-11-19T08:00:08.829Z,0.73
2022-11-19T08:02:40.521Z,0.63
2022-11-19T08:05:10.934Z,0.73
2022-11-19T08:07:39.368Z,0.80
2022-11-19T08:10:08.879Z,0.80
2022-11-19T08:12:37.205Z,0.80
2022-11-19T08:15:05.786Z,0.70
2022-11-19T08:17:51.823Z,0.80
2022-11-19T08:20:21.308Z,0.80
2022-11-19T08:22:49.361Z,0.70
2022-11-19T08:25:17.627Z,0.70
2022-11-19T08:27:45.945Z,0.80
2022-11-19T08:30:15.283Z,0.60
2022-11-19T08:32:43.402Z,0.90
2022-11-19T08:35:11.584Z,0.70
2022-11-19T08:37:41.145Z,0.70
2022-11-19T08:40:10.740Z,0.80
2022-11-19T08:42:56.575Z,0.80
2022-11-19T08:45:24.768Z,0.87
2022-11-19T08:47:53.039Z,0.90
2022-11-19T08:50:21.370Z,0.70
2022-11-19T08:52:58.956Z,0.77
2022-11-19T08:55:28.307Z,1.00
2022-11-19T08:58:01.423Z,0.70
2022-11-19T09:00:30.195Z,0.80
2022-11-19T09:02:58.428Z,0.87
2022-11-19T09:05:27.627Z,0.90
2022-11-19T09:07:57.282Z,0.80
2022-11-19T09:10:25.613Z,0.80
2022-11-19T09:12:54.309Z,0.80
2022-11-19T09:15:23.113Z,0.90
2022-11-19T09:17:51.131Z,0.90
2022-11-19T09:20:19.816Z,0.90
2022-11-19T09:22:47.989Z,0.80
2022-11-19T09:25:18.074Z,0.90
2022-11-19T09:27:46.359Z,0.80
2022-11-19T09:30:15.570Z,1.00
2022-11-19T09:32:43.726Z,0.90
2022-11-19T09:35:11.979Z,0.90
2022-11-19T09:37:40.063Z,0.83
2022-11-19T09:40:10.572Z,0.90
2022-11-19T09:42:47.700Z,0.80
2022-11-19T09:45:22.649Z,0.80
2022-11-19T09:48:17.575Z,0.80
2022-11-19T09:50:53.670Z,1.00
2022-11-19T09:53:24.131Z,1.20
2022-11-19T09:55:55.158Z,1.20
2022-11-19T09:58:32.111Z,1.07
2022-11-19T10:01:00.326Z,1.00
2022-11-19T10:03:33.463Z,1.00
2022-11-19T10:06:22.132Z,0.97
2022-11-19T10:09:11.521Z,0.87
2022-11-19T10:11:52.133Z,0.90
2022-11-19T10:14:46.532Z,1.03
2022-11-19T10:17:26.152Z,0.97
2022-11-19T10:20:10.333Z,0.97
2022-11-19T10:22:50.649Z,0.90
2022-11-19T10:25:25.395Z,1.03
2022-11-19T10:27:55.900Z,0.90
2022-11-19T10:30:27.607Z,0.90
2022-11-19T10:32:59.924Z,1.00
2022-11-19T10:35:33.483Z,0.93
2022-11-19T10:38:05.718Z,1.00
2022-11-19T10:40:39.756Z,0.90
2022-11-19T10:43:23.416Z,2.60
2022-11-19T10:45:53.341Z,1.53
2022-11-19T10:48:23.587Z,1.53
2022-11-19T10:50:52.403Z,0.93
2022-11-19T10:53:25.638Z,1.90
2022-11-19T10:55:58.570Z,1.20
2022-11-19T10:58:30.576Z,1.80
2022-11-19T11:01:03.141Z,2.23
2022-11-19T11:03:35.988Z,1.30
2022-11-19T11:06:06.852Z,1.10
2022-11-19T11:08:47.917Z,0.90
2022-11-19T11:11:47.173Z,0.90
2022-11-19T11:14:48.241Z,1.10
2022-11-19T11:17:23.338Z,1.10
2022-11-19T11:20:00.279Z,1.00
2022-11-19T11:22:29.283Z,1.20
2022-11-19T11:25:00.534Z,1.10
2022-11-19T11:27:34.326Z,1.13
2022-11-19T11:30:16.712Z,1.07
2022-11-19T11:32:47.662Z,1.10
2022-11-19T11:35:33.456Z,1.27
2022-11-19T11:38:02.958Z,2.07
2022-11-19T11:40:31.674Z,1.47
2022-11-19T11:43:00.260Z,1.00
2022-11-19T11:45:33.212Z,1.00
2022-11-19T11:48:08.727Z,1.37
2022-11-19T11:50:46.252Z,1.00
2022-11-19T11:53:16.390Z,1.03
2022-11-19T11:55:45.003Z,1.00
2022-11-19T11:58:29.154Z,1.00
2022-11-19T12:01:15.622Z,1.30
2022-11-19T12:03:55.933Z,1.33
2022-11-19T12:06:27.113Z,1.50
2022-11-19T12:09:04.665Z,1.63
2022-11-19T12:11:53.127Z,1.10
2022-11-19T12:14:25.593Z,1.30
2022-11-19T12:17:22.402Z,1.00
2022-11-19T12:20:16.053Z,4.37
2022-11-19T12:22:56.677Z,1.80
2022-11-19T12:25:33.008Z,1.60
2022-11-19T12:28:26.333Z,1.30
2022-11-19T12:31:09.410Z,2.07
2022-11-19T12:33:53.348Z,2.00
2022-11-19T12:36:30.660Z,1.80
2022-11-19T12:39:04.453Z,1.50
2022-11-19T12:42:05.800Z,1.20
2022-11-19T12:44:46.952Z,1.20
2022-11-19T12:47:29.136Z,1.60
2022-11-19T12:50:06.792Z,1.90
2022-11-19T12:52:54.476Z,1.50
2022-11-19T12:55:28.530Z,1.30
2022-11-19T12:58:06.345Z,1.00
2022-11-19T13:00:41.174Z,1.57
2022-11-19T13:03:15.170Z,2.10
2022-11-19T13:05:50.902Z,1.53
2022-11-19T13:08:29.291Z,1.40
2022-11-19T13:11:07.962Z,1.40
2022-11-19T13:13:42.679Z,1.10
2022-11-19T13:16:13.519Z,1.20
2022-11-19T13:18:45.216Z,1.70
2022-11-19T13:21:24.842Z,1.30
2022-11-19T13:23:56.183Z,1.60
2022-11-19T13:26:27.407Z,1.50
2022-11-19T13:28:58.541Z,1.53
2022-11-19T13:31:34.612Z,1.87
2022-11-19T13:34:09.426Z,1.27
2022-11-19T13:36:44.221Z,1.53
2022-11-19T13:39:19.284Z,1.80
2022-11-19T13:42:09.336Z,1.30
2022-11-19T13:44:42.140Z,1.63
2022-11-19T13:47:16.884Z,1.80
2022-11-19T13:49:46.917Z,2.20
2022-11-19T13:52:23.906Z,2.30
2022-11-19T13:54:53.478Z,2.00
2022-11-19T13:57:29.529Z,1.50
2022-11-19T14:00:01.345Z,1.67
2022-11-19T14:02:59.856Z,1.30
2022-11-19T14:05:42.940Z,1.30
2022-11-19T14:08:35.289Z,1.20
2022-11-19T14:11:18.607Z,1.30
2022-11-19T14:14:05.026Z,1.50
2022-11-19T14:17:00.615Z,1.57
2022-11-19T14:19:47.131Z,1.23
2022-11-19T14:22:52.909Z,1.50
2022-11-19T14:26:01.250Z,1.60
2022-11-19T14:28:45.233Z,1.40
2022-11-19T14:31:14.524Z,1.50
2022-11-19T14:33:57.507Z,1.40
2022-11-19T14:36:37.989Z,1.50
2022-11-19T14:39:16.738Z,1.47
2022-11-19T14:41:45.953Z,1.57
2022-11-19T14:44:37.039Z,1.80
2022-11-19T14:47:33.748Z,1.50
2022-11-19T14:50:05.387Z,1.30
2022-11-19T14:52:39.735Z,1.27
2022-11-19T14:55:22.084Z,1.50
2022-11-19T14:58:01.913Z,1.50
2022-11-19T15:00:34.668Z,1.10
2022-11-19T15:03:05.305Z,4.30
2022-11-19T15:05:35.820Z,3.27
2022-11-19T15:08:30.458Z,1.90
2022-11-19T15:11:07.854Z,1.87
2022-11-19T15:13:37.280Z,1.40
2022-11-19T15:16:12.706Z,1.33
2022-11-19T15:19:10.936Z,1.43
2022-11-19T15:21:57.117Z,1.70
2022-11-19T15:24:39.995Z,1.90
2022-11-19T15:27:19.966Z,2.40
2022-11-19T15:30:07.304Z,2.40
2022-11-19T15:32:53.423Z,2.30
2022-11-19T15:35:36.885Z,2.60
2022-11-19T15:38:13.125Z,2.73
2022-11-19T15:40:44.965Z,1.73
2022-11-19T15:43:20.881Z,2.50
2022-11-19T15:45:53.570Z,1.80
2022-11-19T15:48:28.317Z,1.50
2022-11-19T15:50:56.927Z,1.70
2022-11-19T15:53:26.170Z,1.40
2022-11-19T15:55:59.563Z,2.30
2022-11-19T15:58:31.301Z,1.50
2022-11-19T16:00:59.830Z,1.03
2022-11-19T16:03:32.193Z,2.00
2022-11-19T16:06:04.549Z,1.30
2022-11-19T16:08:33.865Z,1.50
2022-11-19T16:11:21.143Z,1.40
2022-11-19T16:14:10.808Z,1.93
2022-11-19T16:16:56.695Z,1.67
2022-11-19T16:19:26.344Z,3.80
2022-11-19T16:21:59.779Z,1.77
2022-11-19T16:24:47.579Z,1.90
2022-11-19T16:27:25.209Z,1.70
2022-11-19T16:29:54.106Z,2.30
2022-11-19T16:32:25.619Z,1.40
2022-11-19T16:35:10.291Z,2.83
2022-11-19T16:37:39.546Z,1.40
2022-11-19T16:40:09.097Z,1.80
2022-11-19T16:42:36.912Z,1.57
2022-11-19T16:45:15.891Z,2.20
2022-11-19T16:47:54.660Z,1.33
2022-11-19T16:50:32.830Z,1.30
2022-11-19T16:53:02.548Z,1.70
2022-11-19T16:55:51.570Z,1.53
2022-11-19T16:58:29.011Z,1.73
2022-11-19T17:00:59.807Z,2.00
2022-11-19T17:03:35.954Z,1.63
2022-11-19T17:06:07.611Z,2.00
2022-11-19T17:08:40.473Z,2.00
2022-11-19T17:11:38.139Z,1.33
2022-11-19T17:14:20.755Z,1.70
2022-11-19T17:16:50.840Z,1.70
2022-11-19T17:19:27.155Z,2.20
2022-11-19T17:22:01.515Z,2.90
2022-11-19T17:24:33.108Z,2.00
2022-11-19T17:27:01.403Z,6.43
2022-11-19T17:29:29.541Z,1.73
2022-11-19T17:31:58.073Z,1.47
2022-11-19T17:34:32.275Z,1.40
2022-11-19T17:37:02.095Z,1.30
2022-11-19T17:39:30.464Z,1.30
2022-11-19T17:42:16.608Z,1.87
2022-11-19T17:44:44.671Z,1.77
2022-11-19T17:47:24.607Z,1.93
2022-11-19T17:49:53.435Z,1.40
2022-11-19T17:52:25.373Z,3.80
2022-11-19T17:54:56.254Z,3.00
2022-11-19T17:57:24.468Z,2.20
2022-11-19T17:59:52.696Z,1.93
2022-11-19T18:02:22.367Z,3.97
2022-11-19T18:04:50.721Z,1.20
2022-11-19T18:07:19.226Z,1.80
2022-11-19T18:09:49.045Z,2.33
2022-11-19T18:12:19.038Z,3.00
2022-11-19T18:14:47.967Z,2.63
2022-11-19T18:17:16.820Z,1.63
2022-11-19T18:19:45.286Z,2.77
2022-11-19T18:22:19.420Z,2.10
2022-11-19T18:24:50.576Z,1.70
2022-11-19T18:27:19.044Z,1.40
2022-11-19T18:29:47.594Z,1.37
2022-11-19T18:32:17.193Z,1.80
2022-11-19T18:34:46.101Z,1.60
2022-11-19T18:37:14.564Z,1.30
2022-11-19T18:39:42.779Z,1.80
2022-11-19T18:42:13.295Z,1.57
2022-11-19T18:44:43.514Z,1.90
2022-11-19T18:47:13.160Z,3.63
2022-11-19T18:49:41.231Z,1.50
2022-11-19T18:52:14.757Z,2.20
2022-11-19T18:54:42.946Z,1.50
2022-11-19T18:57:12.986Z,4.20
2022-11-19T18:59:41.794Z,1.60
2022-11-19T19:02:11.325Z,1.47
2022-11-19T19:04:39.717Z,1.97
2022-11-19T19:07:08.228Z,2.20
2022-11-19T19:09:37.615Z,2.10
2022-11-19T19:12:22.367Z,3.00
2022-11-19T19:14:52.711Z,2.33
2022-11-19T19:17:21.105Z,1.80
2022-11-19T19:19:50.053Z,2.70
2022-11-19T19:22:18.653Z,3.60
2022-11-19T19:24:47.156Z,2.07
2022-11-19T19:27:16.233Z,1.77
2022-11-19T19:29:44.425Z,2.60
2022-11-19T19:32:14.120Z,1.40
2022-11-19T19:34:42.462Z,1.40
2022-11-19T19:37:10.674Z,1.10
2022-11-19T19:39:39.056Z,2.10
2022-11-19T19:42:07.771Z,1.97
2022-11-19T19:44:37.055Z,1.97
2022-11-19T19:47:06.761Z,1.70
2022-11-19T19:49:39.084Z,1.50
2022-11-19T19:52:07.648Z,1.70
2022-11-19T19:54:35.879Z,1.43
2022-11-19T19:57:04.072Z,1.30
2022-11-19T19:59:32.364Z,1.90
2022-11-19T20:02:00.584Z,2.40
2022-11-19T20:04:28.860Z,2.70
2022-11-19T20:06:58.702Z,2.43
2022-11-19T20:09:27.599Z,1.30
2022-11-19T20:11:56.027Z,1.67
2022-11-19T20:14:24.266Z,2.10
2022-11-19T20:16:52.912Z,1.43
2022-11-19T20:19:21.285Z,1.10
2022-11-19T20:21:49.686Z,1.00
2022-11-19T20:24:20.259Z,1.70
2022-11-19T20:26:48.424Z,1.30
2022-11-19T20:29:17.852Z,1.10
2022-11-19T20:31:48.163Z,1.30
2022-11-19T20:34:17.572Z,1.23
2022-11-19T20:36:45.895Z,1.70
2022-11-19T20:39:14.617Z,1.43
2022-11-19T20:42:01.624Z,1.27
2022-11-19T20:44:30.506Z,1.60
2022-11-19T20:46:59.668Z,1.90
2022-11-19T20:49:29.781Z,1.67
2022-11-19T20:51:58.307Z,1.83
2022-11-19T20:54:27.584Z,1.90
2022-11-19T20:56:58.280Z,1.33
2022-11-19T20:59:28.811Z,1.53
2022-11-19T21:01:58.640Z,1.20
2022-11-19T21:04:29.359Z,1.50
2022-11-19T21:06:57.501Z,1.40
2022-11-19T21:09:30.447Z,1.30
2022-11-19T21:12:00.239Z,1.43
2022-11-19T21:14:28.487Z,1.43
2022-11-19T21:16:56.650Z,1.33
2022-11-19T21:19:25.089Z,1.27
2022-11-19T21:21:54.060Z,1.20
2022-11-19T21:24:22.424Z,1.20
2022-11-19T21:26:53.701Z,1.50
2022-11-19T21:29:23.782Z,1.10
2022-11-19T21:31:52.378Z,1.30
2022-11-19T21:34:21.718Z,1.50
2022-11-19T21:36:50.916Z,1.20
2022-11-19T21:39:21.289Z,1.23
2022-11-19T21:41:49.892Z,1.37
2022-11-19T21:44:21.435Z,1.30
2022-11-19T21:46:51.644Z,1.20
2022-11-19T21:49:20.618Z,1.43
2022-11-19T21:51:49.175Z,1.73
2022-11-19T21:54:17.477Z,1.53
2022-11-19T21:56:45.972Z,1.27
2022-11-19T21:59:14.438Z,1.20
2022-11-19T22:01:42.682Z,1.20
2022-11-19T22:04:15.562Z,1.30
2022-11-19T22:06:43.743Z,1.43
2022-11-19T22:09:11.918Z,1.53
2022-11-19T22:11:40.133Z,1.50
2022-11-19T22:14:10.711Z,1.57
2022-11-19T22:16:40.972Z,1.10
2022-11-19T22:19:11.636Z,1.40
2022-11-19T22:21:41.778Z,1.30
2022-11-19T22:24:10.274Z,1.50
2022-11-19T22:26:38.481Z,1.40
2022-11-19T22:29:06.683Z,1.10
2022-11-19T22:31:34.935Z,1.23
2022-11-19T22:34:03.278Z,1.20
2022-11-19T22:36:33.408Z,1.50
2022-11-19T22:39:03.538Z,1.33
2022-11-19T22:41:31.877Z,1.50
2022-11-19T22:44:00.139Z,1.33
2022-11-19T22:46:28.520Z,1.60
2022-11-19T22:48:56.768Z,1.37
2022-11-19T22:51:26.654Z,1.70
2022-11-19T22:53:55.935Z,1.60
2022-11-19T22:56:27.644Z,1.70
2022-11-19T22:58:56.563Z,1.60
2022-11-19T23:01:26.427Z,1.47
2022-11-19T23:03:55.739Z,1.73
2022-11-19T23:06:24.445Z,2.20
2022-11-19T23:08:52.999Z,1.50
2022-11-19T23:11:43.570Z,1.60
2022-11-19T23:14:14.915Z,1.67
2022-11-19T23:16:43.722Z,1.70
2022-11-19T23:19:13.209Z,1.70
2022-11-19T23:21:42.167Z,1.60
2022-11-19T23:24:11.251Z,1.70
2022-11-19T23:26:39.733Z,1.70
2022-11-19T23:29:09.253Z,2.00
2022-11-19T23:31:40.761Z,2.03
2022-11-19T23:34:09.742Z,1.70
2022-11-19T23:36:40.057Z,1.60
2022-11-19T23:39:10.625Z,1.57
2022-11-19T23:41:38.834Z,1.90
2022-11-19T23:44:06.910Z,1.73
2022-11-19T23:46:37.051Z,1.83
2022-11-19T23:49:07.040Z,1.73
2022-11-19T23:51:37.920Z,1.73
2022-11-19T23:54:08.432Z,1.60
2022-11-19T23:56:37.251Z,1.77
2022-11-19T23:59:06.670Z,1.93
